sensor_id;sensor_type;location;lat;lon;timestamp;pressure;altitude;pressure_sealevel;temperature;humidity
3178;BME280;38141;42.666;23.344;2023-04-06T00:00:50;94441.47;;;0.75;100.00
3178;BME280;38141;42.666;23.344;2023-04-06T00:03:17;94380.09;;;0.38;100.00
3178;BME280;38141;42.666;23.344;2023-04-06T00:05:44;94390.00;;;0.71;100.00
3178;BME280;38141;42.666;23.344;2023-04-06T00:08:11;94404.44;;;0.82;100.00
3178;BME280;38141;42.666;23.344;2023-04-06T00:10:38;94409.25;;;0.88;100.00
3178;BME280;38141;42.666;23.344;2023-04-06T00:13:05;94373.56;;;0.69;100.00
3178;BME280;38141;42.666;23.344;2023-04-06T00:15:33;94392.00;;;0.74;100.00
3178;BME280;38141;42.666;23.344;2023-04-06T00:18:00;94357.97;;;0.47;100.00
3178;BME280;38141;42.666;23.344;2023-04-06T00:20:27;94382.59;;;0.76;100.00
3178;BME280;38141;42.666;23.344;2023-04-06T00:22:54;94380.19;;;0.83;100.00
3178;BME280;38141;42.666;23.344;2023-04-06T00:25:20;94386.84;;;0.89;100.00
3178;BME280;38141;42.666;23.344;2023-04-06T00:27:47;94375.84;;;0.79;100.00
3178;BME280;38141;42.666;23.344;2023-04-06T00:30:14;94383.94;;;0.82;100.00
3178;BME280;38141;42.666;23.344;2023-04-06T00:32:42;94398.56;;;0.76;100.00
3178;BME280;38141;42.666;23.344;2023-04-06T00:35:09;94383.81;;;0.79;100.00
3178;BME280;38141;42.666;23.344;2023-04-06T00:37:36;94380.72;;;0.77;100.00
3178;BME280;38141;42.666;23.344;2023-04-06T00:40:03;94366.28;;;0.78;100.00
3178;BME280;38141;42.666;23.344;2023-04-06T00:42:30;94369.84;;;0.82;100.00
3178;BME280;38141;42.666;23.344;2023-04-06T00:44:59;94343.09;;;0.66;100.00
3178;BME280;38141;42.666;23.344;2023-04-06T00:47:26;94370.69;;;0.95;100.00
3178;BME280;38141;42.666;23.344;2023-04-06T00:49:55;94362.91;;;0.89;100.00
3178;BME280;38141;42.666;23.344;2023-04-06T00:52:21;94358.56;;;0.85;100.00
3178;BME280;38141;42.666;23.344;2023-04-06T00:54:49;94363.31;;;0.79;100.00
3178;BME280;38141;42.666;23.344;2023-04-06T00:57:16;94360.44;;;0.84;100.00
3178;BME280;38141;42.666;23.344;2023-04-06T00:59:43;94365.50;;;0.77;100.00
3178;BME280;38141;42.666;23.344;2023-04-06T01:02:10;94367.66;;;0.84;100.00
3178;BME280;38141;42.666;23.344;2023-04-06T01:04:37;94326.34;;;0.66;100.00
3178;BME280;38141;42.666;23.344;2023-04-06T01:07:05;94363.88;;;0.85;100.00
3178;BME280;38141;42.666;23.344;2023-04-06T01:09:32;94358.75;;;0.80;100.00
3178;BME280;38141;42.666;23.344;2023-04-06T01:11:59;94339.03;;;0.81;100.00
3178;BME280;38141;42.666;23.344;2023-04-06T01:14:26;94357.03;;;0.96;100.00
3178;BME280;38141;42.666;23.344;2023-04-06T01:16:53;94355.81;;;0.94;100.00
3178;BME280;38141;42.666;23.344;2023-04-06T01:19:21;94358.47;;;0.94;100.00
3178;BME280;38141;42.666;23.344;2023-04-06T01:21:49;94342.16;;;0.95;100.00
3178;BME280;38141;42.666;23.344;2023-04-06T01:24:19;94338.81;;;0.86;100.00
3178;BME280;38141;42.666;23.344;2023-04-06T01:26:46;94344.00;;;0.82;100.00
3178;BME280;38141;42.666;23.344;2023-04-06T01:29:13;94328.91;;;0.74;100.00
3178;BME280;38141;42.666;23.344;2023-04-06T01:31:40;94340.94;;;0.93;100.00
3178;BME280;38141;42.666;23.344;2023-04-06T01:34:07;94327.50;;;0.77;100.00
3178;BME280;38141;42.666;23.344;2023-04-06T01:36:34;94325.53;;;1.10;100.00
3178;BME280;38141;42.666;23.344;2023-04-06T01:39:00;94235.59;;;0.47;100.00
3178;BME280;38141;42.666;23.344;2023-04-06T01:41:29;94340.97;;;1.17;100.00
3178;BME280;38141;42.666;23.344;2023-04-06T01:43:55;94317.06;;;0.96;100.00
3178;BME280;38141;42.666;23.344;2023-04-06T01:46:22;94333.88;;;1.09;100.00
3178;BME280;38141;42.666;23.344;2023-04-06T01:48:49;94336.28;;;1.14;100.00
3178;BME280;38141;42.666;23.344;2023-04-06T01:51:16;94318.22;;;1.07;100.00
3178;BME280;38141;42.666;23.344;2023-04-06T01:53:45;94246.81;;;0.64;100.00
3178;BME280;38141;42.666;23.344;2023-04-06T01:56:13;94270.13;;;0.79;100.00
3178;BME280;38141;42.666;23.344;2023-04-06T01:58:41;94304.34;;;1.02;100.00
3178;BME280;38141;42.666;23.344;2023-04-06T02:01:08;94320.88;;;1.19;100.00
3178;BME280;38141;42.666;23.344;2023-04-06T02:03:35;94315.22;;;1.21;100.00
3178;BME280;38141;42.666;23.344;2023-04-06T02:06:02;94320.44;;;1.17;100.00
3178;BME280;38141;42.666;23.344;2023-04-06T02:08:29;94333.00;;;1.29;100.00
3178;BME280;38141;42.666;23.344;2023-04-06T02:10:56;94299.69;;;1.11;100.00
3178;BME280;38141;42.666;23.344;2023-04-06T02:13:22;94322.22;;;1.38;100.00
3178;BME280;38141;42.666;23.344;2023-04-06T02:15:51;94303.25;;;1.27;100.00
3178;BME280;38141;42.666;23.344;2023-04-06T02:18:18;94296.47;;;1.17;100.00
3178;BME280;38141;42.666;23.344;2023-04-06T02:20:44;94234.97;;;0.74;100.00
3178;BME280;38141;42.666;23.344;2023-04-06T02:23:11;94187.81;;;0.38;100.00
3178;BME280;38141;42.666;23.344;2023-04-06T02:25:38;94224.31;;;0.74;100.00
3178;BME280;38141;42.666;23.344;2023-04-06T02:28:05;94210.56;;;0.60;100.00
3178;BME280;38141;42.666;23.344;2023-04-06T02:30:32;94203.88;;;0.41;100.00
3178;BME280;38141;42.666;23.344;2023-04-06T02:33:01;94208.22;;;0.46;100.00
3178;BME280;38141;42.666;23.344;2023-04-06T02:35:28;94330.13;;;1.34;100.00
3178;BME280;38141;42.666;23.344;2023-04-06T02:37:55;94216.91;;;0.79;100.00
3178;BME280;38141;42.666;23.344;2023-04-06T02:40:22;94316.34;;;1.32;100.00
3178;BME280;38141;42.666;23.344;2023-04-06T02:42:49;94308.59;;;1.27;100.00
3178;BME280;38141;42.666;23.344;2023-04-06T02:45:16;94306.03;;;1.43;100.00
3178;BME280;38141;42.666;23.344;2023-04-06T02:47:43;94307.03;;;1.38;100.00
3178;BME280;38141;42.666;23.344;2023-04-06T02:50:11;94264.03;;;0.91;100.00
3178;BME280;38141;42.666;23.344;2023-04-06T02:52:38;94306.03;;;1.30;100.00
3178;BME280;38141;42.666;23.344;2023-04-06T02:55:06;94309.44;;;1.19;100.00
3178;BME280;38141;42.666;23.344;2023-04-06T02:57:33;94229.44;;;0.67;100.00
3178;BME280;38141;42.666;23.344;2023-04-06T03:00:00;94228.19;;;0.64;100.00
3178;BME280;38141;42.666;23.344;2023-04-06T03:02:26;94312.69;;;1.24;100.00
3178;BME280;38141;42.666;23.344;2023-04-06T03:04:53;94272.59;;;0.72;100.00
3178;BME280;38141;42.666;23.344;2023-04-06T03:07:22;94289.47;;;1.01;100.00
3178;BME280;38141;42.666;23.344;2023-04-06T03:09:49;94310.13;;;1.16;100.00
3178;BME280;38141;42.666;23.344;2023-04-06T03:12:15;94309.78;;;1.29;100.00
3178;BME280;38141;42.666;23.344;2023-04-06T03:14:42;94315.56;;;1.19;100.00
3178;BME280;38141;42.666;23.344;2023-04-06T03:17:09;94305.00;;;1.11;100.00
3178;BME280;38141;42.666;23.344;2023-04-06T03:19:36;94315.44;;;1.28;100.00
3178;BME280;38141;42.666;23.344;2023-04-06T03:22:03;94289.13;;;1.02;100.00
3178;BME280;38141;42.666;23.344;2023-04-06T03:24:31;94301.25;;;1.12;100.00
3178;BME280;38141;42.666;23.344;2023-04-06T03:26:57;94304.91;;;1.19;100.00
3178;BME280;38141;42.666;23.344;2023-04-06T03:29:25;94301.56;;;1.10;100.00
3178;BME280;38141;42.666;23.344;2023-04-06T03:31:52;94305.78;;;1.23;100.00
3178;BME280;38141;42.666;23.344;2023-04-06T03:34:19;94304.47;;;1.17;100.00
3178;BME280;38141;42.666;23.344;2023-04-06T03:36:46;94304.69;;;1.24;100.00
3178;BME280;38141;42.666;23.344;2023-04-06T03:39:15;94298.94;;;1.22;100.00
3178;BME280;38141;42.666;23.344;2023-04-06T03:41:43;94310.00;;;1.37;100.00
3178;BME280;38141;42.666;23.344;2023-04-06T03:44:11;94309.34;;;1.40;100.00
3178;BME280;38141;42.666;23.344;2023-04-06T03:46:37;94307.47;;;1.40;100.00
3178;BME280;38141;42.666;23.344;2023-04-06T03:49:04;94270.97;;;1.04;100.00
3178;BME280;38141;42.666;23.344;2023-04-06T03:51:33;94302.69;;;1.33;100.00
3178;BME280;38141;42.666;23.344;2023-04-06T03:54:00;94300.59;;;1.39;100.00
3178;BME280;38141;42.666;23.344;2023-04-06T03:56:27;94283.94;;;1.30;100.00
3178;BME280;38141;42.666;23.344;2023-04-06T03:58:56;94197.50;;;0.67;100.00
3178;BME280;38141;42.666;23.344;2023-04-06T04:01:22;94279.16;;;1.36;100.00
3178;BME280;38141;42.666;23.344;2023-04-06T04:03:50;94186.06;;;0.66;100.00
3178;BME280;38141;42.666;23.344;2023-04-06T04:06:17;94290.38;;;1.29;100.00
3178;BME280;38141;42.666;23.344;2023-04-06T04:08:45;94275.25;;;1.33;100.00
3178;BME280;38141;42.666;23.344;2023-04-06T04:11:12;94263.63;;;1.13;100.00
3178;BME280;38141;42.666;23.344;2023-04-06T04:13:40;94234.00;;;1.03;100.00
3178;BME280;38141;42.666;23.344;2023-04-06T04:16:08;94315.13;;;1.54;100.00
3178;BME280;38141;42.666;23.344;2023-04-06T04:18:35;94303.22;;;1.51;100.00
3178;BME280;38141;42.666;23.344;2023-04-06T04:21:02;94289.16;;;1.39;100.00
3178;BME280;38141;42.666;23.344;2023-04-06T04:23:28;94312.13;;;1.55;100.00
3178;BME280;38141;42.666;23.344;2023-04-06T04:25:57;94307.25;;;1.45;100.00
3178;BME280;38141;42.666;23.344;2023-04-06T04:28:24;94307.66;;;1.59;100.00
3178;BME280;38141;42.666;23.344;2023-04-06T04:30:51;94323.56;;;1.68;100.00
3178;BME280;38141;42.666;23.344;2023-04-06T04:33:19;94332.44;;;1.60;100.00
3178;BME280;38141;42.666;23.344;2023-04-06T04:35:46;94249.72;;;1.32;100.00
3178;BME280;38141;42.666;23.344;2023-04-06T04:38:13;94245.31;;;1.36;100.00
3178;BME280;38141;42.666;23.344;2023-04-06T04:40:40;94198.16;;;1.00;100.00
3178;BME280;38141;42.666;23.344;2023-04-06T04:43:06;94272.13;;;1.55;100.00
3178;BME280;38141;42.666;23.344;2023-04-06T04:45:33;94337.63;;;1.93;100.00
3178;BME280;38141;42.666;23.344;2023-04-06T04:48:00;94229.06;;;1.41;100.00
3178;BME280;38141;42.666;23.344;2023-04-06T04:50:28;94211.41;;;1.37;100.00
3178;BME280;38141;42.666;23.344;2023-04-06T04:52:55;94305.53;;;1.89;100.00
3178;BME280;38141;42.666;23.344;2023-04-06T04:55:22;94314.19;;;1.98;100.00
3178;BME280;38141;42.666;23.344;2023-04-06T04:57:49;94301.41;;;1.92;100.00
3178;BME280;38141;42.666;23.344;2023-04-06T05:00:17;94272.38;;;1.62;100.00
3178;BME280;38141;42.666;23.344;2023-04-06T05:02:44;94300.97;;;1.90;100.00
3178;BME280;38141;42.666;23.344;2023-04-06T05:05:10;94321.84;;;2.00;100.00
3178;BME280;38141;42.666;23.344;2023-04-06T05:07:39;94311.78;;;2.21;100.00
3178;BME280;38141;42.666;23.344;2023-04-06T05:10:07;94290.03;;;2.07;100.00
3178;BME280;38141;42.666;23.344;2023-04-06T05:12:34;94270.53;;;2.18;100.00
3178;BME280;38141;42.666;23.344;2023-04-06T05:15:01;94241.38;;;1.98;99.88
3178;BME280;38141;42.666;23.344;2023-04-06T05:17:28;94295.47;;;2.38;100.00
3178;BME280;38141;42.666;23.344;2023-04-06T05:19:56;94283.03;;;2.02;100.00
3178;BME280;38141;42.666;23.344;2023-04-06T05:22:23;94306.38;;;2.33;99.76
3178;BME280;38141;42.666;23.344;2023-04-06T05:24:52;94291.91;;;2.06;100.00
3178;BME280;38141;42.666;23.344;2023-04-06T05:27:19;94300.06;;;1.98;100.00
3178;BME280;38141;42.666;23.344;2023-04-06T05:29:46;94279.28;;;1.91;100.00
3178;BME280;38141;42.666;23.344;2023-04-06T05:32:13;94274.09;;;1.83;100.00
3178;BME280;38141;42.666;23.344;2023-04-06T05:34:41;94310.69;;;2.10;100.00
3178;BME280;38141;42.666;23.344;2023-04-06T05:37:08;94253.59;;;1.59;100.00
3178;BME280;38141;42.666;23.344;2023-04-06T05:39:35;94245.72;;;1.62;100.00
3178;BME280;38141;42.666;23.344;2023-04-06T05:42:05;94292.16;;;2.01;100.00
3178;BME280;38141;42.666;23.344;2023-04-06T05:44:32;94266.50;;;1.97;100.00
3178;BME280;38141;42.666;23.344;2023-04-06T05:46:59;94209.75;;;1.84;100.00
3178;BME280;38141;42.666;23.344;2023-04-06T05:49:27;94266.84;;;2.51;100.00
3178;BME280;38141;42.666;23.344;2023-04-06T05:51:55;94310.09;;;3.16;100.00
3178;BME280;38141;42.666;23.344;2023-04-06T05:54:22;94231.44;;;2.38;100.00
3178;BME280;38141;42.666;23.344;2023-04-06T05:56:51;94259.28;;;2.25;100.00
3178;BME280;38141;42.666;23.344;2023-04-06T05:59:19;94218.81;;;1.67;100.00
3178;BME280;38141;42.666;23.344;2023-04-06T06:01:46;94283.91;;;2.62;100.00
3178;BME280;38141;42.666;23.344;2023-04-06T06:04:12;94232.78;;;2.32;100.00
3178;BME280;38141;42.666;23.344;2023-04-06T06:06:39;94266.16;;;2.54;100.00
3178;BME280;38141;42.666;23.344;2023-04-06T06:09:12;94257.84;;;2.71;100.00
3178;BME280;38141;42.666;23.344;2023-04-06T06:11:39;94300.84;;;3.29;100.00
3178;BME280;38141;42.666;23.344;2023-04-06T06:14:06;94255.69;;;3.08;100.00
3178;BME280;38141;42.666;23.344;2023-04-06T06:16:34;94231.13;;;2.87;97.92
3178;BME280;38141;42.666;23.344;2023-04-06T06:19:01;94224.50;;;2.96;96.58
3178;BME280;38141;42.666;23.344;2023-04-06T06:21:28;94280.66;;;3.47;95.21
3178;BME280;38141;42.666;23.344;2023-04-06T06:23:56;94225.09;;;3.05;95.79
3178;BME280;38141;42.666;23.344;2023-04-06T06:26:23;94268.69;;;3.41;96.48
3178;BME280;38141;42.666;23.344;2023-04-06T06:28:49;94290.03;;;4.65;86.84
3178;BME280;38141;42.666;23.344;2023-04-06T06:31:18;94260.63;;;5.14;82.00
3178;BME280;38141;42.666;23.344;2023-04-06T06:33:47;94303.22;;;5.64;76.51
3178;BME280;38141;42.666;23.344;2023-04-06T06:36:16;94194.75;;;5.35;74.07
3178;BME280;38141;42.666;23.344;2023-04-06T06:38:43;94296.63;;;6.11;73.15
3178;BME280;38141;42.666;23.344;2023-04-06T06:41:11;94283.91;;;6.34;69.80
3178;BME280;38141;42.666;23.344;2023-04-06T06:43:38;94280.69;;;6.88;66.36
3178;BME280;38141;42.666;23.344;2023-04-06T06:46:05;94290.94;;;6.79;64.60
3178;BME280;38141;42.666;23.344;2023-04-06T06:48:32;94288.75;;;6.55;64.73
3178;BME280;38141;42.666;23.344;2023-04-06T06:51:00;94273.28;;;6.45;67.76
3178;BME280;38141;42.666;23.344;2023-04-06T06:53:27;94303.94;;;7.10;63.67
3178;BME280;38141;42.666;23.344;2023-04-06T06:55:53;94278.53;;;7.45;62.27
3178;BME280;38141;42.666;23.344;2023-04-06T06:58:21;94273.53;;;8.05;62.01
3178;BME280;38141;42.666;23.344;2023-04-06T07:00:48;94273.34;;;8.31;59.10
3178;BME280;38141;42.666;23.344;2023-04-06T07:03:15;94300.09;;;8.72;57.85
3178;BME280;38141;42.666;23.344;2023-04-06T07:05:45;94308.41;;;8.38;57.04
3178;BME280;38141;42.666;23.344;2023-04-06T07:08:16;94301.63;;;8.73;55.94
3178;BME280;38141;42.666;23.344;2023-04-06T07:10:42;94258.78;;;8.50;56.48
3178;BME280;38141;42.666;23.344;2023-04-06T07:13:09;94272.25;;;8.43;56.62
3178;BME280;38141;42.666;23.344;2023-04-06T07:15:36;94289.09;;;9.58;54.26
3178;BME280;38141;42.666;23.344;2023-04-06T07:18:03;94276.34;;;9.16;54.21
3178;BME280;38141;42.666;23.344;2023-04-06T07:20:30;94305.69;;;9.53;53.56
3178;BME280;38141;42.666;23.344;2023-04-06T07:22:57;94287.56;;;9.86;52.27
3178;BME280;38141;42.666;23.344;2023-04-06T07:25:25;94290.59;;;10.05;51.57
3178;BME280;38141;42.666;23.344;2023-04-06T07:27:52;94268.25;;;9.66;51.15
3178;BME280;38141;42.666;23.344;2023-04-06T07:30:19;94289.81;;;10.33;51.54
3178;BME280;38141;42.666;23.344;2023-04-06T07:32:47;94280.97;;;10.25;51.63
3178;BME280;38141;42.666;23.344;2023-04-06T07:35:14;94291.41;;;9.60;51.58
3178;BME280;38141;42.666;23.344;2023-04-06T07:37:41;94294.84;;;9.96;51.49
3178;BME280;38141;42.666;23.344;2023-04-06T07:40:09;94292.16;;;10.20;50.18
3178;BME280;38141;42.666;23.344;2023-04-06T07:42:37;94287.53;;;9.50;51.22
3178;BME280;38141;42.666;23.344;2023-04-06T07:45:05;94289.88;;;9.48;52.52
3178;BME280;38141;42.666;23.344;2023-04-06T07:47:33;94288.34;;;9.72;52.80
3178;BME280;38141;42.666;23.344;2023-04-06T07:49:59;94275.19;;;9.42;52.69
3178;BME280;38141;42.666;23.344;2023-04-06T07:52:26;94279.78;;;10.30;50.85
3178;BME280;38141;42.666;23.344;2023-04-06T07:54:53;94279.38;;;9.04;52.60
3178;BME280;38141;42.666;23.344;2023-04-06T07:57:20;94287.16;;;9.41;52.32
3178;BME280;38141;42.666;23.344;2023-04-06T07:59:48;94285.09;;;10.58;50.99
3178;BME280;38141;42.666;23.344;2023-04-06T08:02:15;94287.47;;;11.29;48.86
3178;BME280;38141;42.666;23.344;2023-04-06T08:04:42;94284.41;;;11.24;48.29
3178;BME280;38141;42.666;23.344;2023-04-06T08:07:09;94278.72;;;11.07;48.37
3178;BME280;38141;42.666;23.344;2023-04-06T08:09:36;94283.50;;;11.96;47.52
3178;BME280;38141;42.666;23.344;2023-04-06T08:12:03;94281.78;;;11.09;47.90
3178;BME280;38141;42.666;23.344;2023-04-06T08:14:30;94282.88;;;12.22;46.45
3178;BME280;38141;42.666;23.344;2023-04-06T08:16:58;94282.56;;;12.17;45.47
3178;BME280;38141;42.666;23.344;2023-04-06T08:19:25;94275.47;;;12.64;44.42
3178;BME280;38141;42.666;23.344;2023-04-06T08:21:51;94285.59;;;12.60;43.79
3178;BME280;38141;42.666;23.344;2023-04-06T08:24:18;94284.13;;;13.19;43.87
3178;BME280;38141;42.666;23.344;2023-04-06T08:26:45;94287.69;;;13.93;42.54
3178;BME280;38141;42.666;23.344;2023-04-06T08:29:12;94299.91;;;12.26;44.08
3178;BME280;38141;42.666;23.344;2023-04-06T08:31:38;94257.53;;;12.73;43.53
3178;BME280;38141;42.666;23.344;2023-04-06T08:34:07;94283.66;;;14.48;40.64
3178;BME280;38141;42.666;23.344;2023-04-06T08:36:33;94288.75;;;14.22;40.51
3178;BME280;38141;42.666;23.344;2023-04-06T08:39:00;94290.31;;;13.73;41.25
3178;BME280;38141;42.666;23.344;2023-04-06T08:41:27;94296.00;;;13.82;41.48
3178;BME280;38141;42.666;23.344;2023-04-06T08:43:57;94292.19;;;13.53;41.98
3178;BME280;38141;42.666;23.344;2023-04-06T08:46:25;94289.63;;;15.02;39.87
3178;BME280;38141;42.666;23.344;2023-04-06T08:48:55;94275.72;;;13.07;41.18
3178;BME280;38141;42.666;23.344;2023-04-06T08:51:24;94284.13;;;13.46;41.38
3178;BME280;38141;42.666;23.344;2023-04-06T08:53:52;94295.69;;;15.09;38.50
3178;BME280;38141;42.666;23.344;2023-04-06T08:56:20;94292.94;;;14.04;39.53
3178;BME280;38141;42.666;23.344;2023-04-06T08:58:47;94278.72;;;15.90;37.80
3178;BME280;38141;42.666;23.344;2023-04-06T09:01:17;94288.44;;;17.26;35.48
3178;BME280;38141;42.666;23.344;2023-04-06T09:03:44;94272.72;;;18.65;33.24
3178;BME280;38141;42.666;23.344;2023-04-06T09:06:13;94285.88;;;17.98;33.75
3178;BME280;38141;42.666;23.344;2023-04-06T09:08:41;94275.94;;;17.79;33.95
3178;BME280;38141;42.666;23.344;2023-04-06T09:11:09;94297.38;;;17.93;33.35
3178;BME280;38141;42.666;23.344;2023-04-06T09:13:46;94238.25;;;15.88;35.54
3178;BME280;38141;42.666;23.344;2023-04-06T09:16:13;94283.97;;;16.45;35.19
3178;BME280;38141;42.666;23.344;2023-04-06T09:18:41;94276.22;;;16.44;35.21
3178;BME280;38141;42.666;23.344;2023-04-06T09:21:08;94275.16;;;15.61;36.59
3178;BME280;38141;42.666;23.344;2023-04-06T09:23:36;94284.53;;;16.24;35.45
3178;BME280;38141;42.666;23.344;2023-04-06T09:26:09;94270.91;;;17.65;34.66
3178;BME280;38141;42.666;23.344;2023-04-06T09:28:46;94259.22;;;17.23;34.26
3178;BME280;38141;42.666;23.344;2023-04-06T09:31:14;94273.06;;;18.89;32.18
3178;BME280;38141;42.666;23.344;2023-04-06T09:33:43;94282.03;;;17.04;34.64
3178;BME280;38141;42.666;23.344;2023-04-06T09:36:10;94279.56;;;17.22;34.90
3178;BME280;38141;42.666;23.344;2023-04-06T09:38:38;94266.91;;;20.30;30.80
3178;BME280;38141;42.666;23.344;2023-04-06T09:41:05;94262.31;;;18.60;32.57
3178;BME280;38141;42.666;23.344;2023-04-06T09:43:33;94239.84;;;20.20;29.98
3178;BME280;38141;42.666;23.344;2023-04-06T09:46:00;94268.63;;;21.01;29.24
3178;BME280;38141;42.666;23.344;2023-04-06T09:48:31;94265.72;;;21.22;29.51
3178;BME280;38141;42.666;23.344;2023-04-06T09:51:18;94279.94;;;21.12;28.44
3178;BME280;38141;42.666;23.344;2023-04-06T09:53:50;94275.13;;;18.04;31.52
3178;BME280;38141;42.666;23.344;2023-04-06T09:56:22;94254.47;;;17.77;31.85
3178;BME280;38141;42.666;23.344;2023-04-06T09:58:54;94284.25;;;18.35;32.27
3178;BME280;38141;42.666;23.344;2023-04-06T10:01:26;94281.81;;;17.77;32.37
3178;BME280;38141;42.666;23.344;2023-04-06T10:03:59;94284.31;;;14.95;36.41
3178;BME280;38141;42.666;23.344;2023-04-06T10:06:32;94285.88;;;14.76;36.36
3178;BME280;38141;42.666;23.344;2023-04-06T10:09:02;94259.44;;;14.73;36.83
3178;BME280;38141;42.666;23.344;2023-04-06T10:11:29;94287.59;;;14.86;36.39
3178;BME280;38141;42.666;23.344;2023-04-06T10:13:58;94279.50;;;14.83;36.77
3178;BME280;38141;42.666;23.344;2023-04-06T10:16:25;94277.25;;;15.17;35.51
3178;BME280;38141;42.666;23.344;2023-04-06T10:18:57;94278.00;;;13.92;37.29
3178;BME280;38141;42.666;23.344;2023-04-06T10:21:26;94274.31;;;14.25;37.25
3178;BME280;38141;42.666;23.344;2023-04-06T10:23:58;94273.81;;;12.73;38.16
3178;BME280;38141;42.666;23.344;2023-04-06T10:26:25;94289.97;;;12.50;39.66
3178;BME280;38141;42.666;23.344;2023-04-06T10:28:52;94258.34;;;11.47;40.82
3178;BME280;38141;42.666;23.344;2023-04-06T10:31:30;94274.66;;;11.37;41.54
3178;BME280;38141;42.666;23.344;2023-04-06T10:33:57;94270.97;;;11.65;41.44
3178;BME280;38141;42.666;23.344;2023-04-06T10:36:25;94264.34;;;10.31;43.28
3178;BME280;38141;42.666;23.344;2023-04-06T10:38:57;94254.50;;;10.76;43.66
3178;BME280;38141;42.666;23.344;2023-04-06T10:41:31;94213.78;;;10.20;43.68
3178;BME280;38141;42.666;23.344;2023-04-06T10:43:59;94265.94;;;11.08;43.03
3178;BME280;38141;42.666;23.344;2023-04-06T10:46:28;94266.44;;;10.89;43.64
3178;BME280;38141;42.666;23.344;2023-04-06T10:48:56;94258.16;;;10.30;43.90
3178;BME280;38141;42.666;23.344;2023-04-06T10:51:27;94263.56;;;10.09;45.04
3178;BME280;38141;42.666;23.344;2023-04-06T10:53:55;94258.94;;;11.14;43.79
3178;BME280;38141;42.666;23.344;2023-04-06T10:56:24;94269.53;;;10.84;43.98
3178;BME280;38141;42.666;23.344;2023-04-06T10:58:54;94260.19;;;10.99;43.80
3178;BME280;38141;42.666;23.344;2023-04-06T11:01:23;94254.69;;;11.13;42.50
3178;BME280;38141;42.666;23.344;2023-04-06T11:03:51;94249.72;;;11.04;43.22
3178;BME280;38141;42.666;23.344;2023-04-06T11:06:20;94264.06;;;10.98;43.21
3178;BME280;38141;42.666;23.344;2023-04-06T11:08:48;94244.47;;;11.38;43.43
3178;BME280;38141;42.666;23.344;2023-04-06T11:11:16;94253.31;;;10.84;44.92
3178;BME280;38141;42.666;23.344;2023-04-06T11:13:45;94247.31;;;11.76;43.19
3178;BME280;38141;42.666;23.344;2023-04-06T11:16:13;94237.88;;;12.28;41.85
3178;BME280;38141;42.666;23.344;2023-04-06T11:18:48;94249.53;;;11.88;42.84
3178;BME280;38141;42.666;23.344;2023-04-06T11:21:15;94232.91;;;12.57;41.23
3178;BME280;38141;42.666;23.344;2023-04-06T11:23:43;94212.59;;;12.69;40.67
3178;BME280;38141;42.666;23.344;2023-04-06T11:26:11;94204.75;;;13.35;40.29
3178;BME280;38141;42.666;23.344;2023-04-06T11:28:38;94226.34;;;13.42;39.77
3178;BME280;38141;42.666;23.344;2023-04-06T11:31:05;94209.50;;;12.70;40.09
3178;BME280;38141;42.666;23.344;2023-04-06T11:33:35;94228.19;;;12.27;41.12
3178;BME280;38141;42.666;23.344;2023-04-06T11:36:03;94218.28;;;11.76;42.43
3178;BME280;38141;42.666;23.344;2023-04-06T11:38:30;94224.84;;;12.16;41.75
3178;BME280;38141;42.666;23.344;2023-04-06T11:40:58;94212.09;;;11.69;42.29
3178;BME280;38141;42.666;23.344;2023-04-06T11:43:27;94222.84;;;11.31;42.83
3178;BME280;38141;42.666;23.344;2023-04-06T11:46:00;94213.94;;;10.76;42.81
3178;BME280;38141;42.666;23.344;2023-04-06T11:48:27;94232.94;;;10.54;44.41
3178;BME280;38141;42.666;23.344;2023-04-06T11:50:58;94219.91;;;10.39;44.64
3178;BME280;38141;42.666;23.344;2023-04-06T11:53:26;94226.03;;;10.46;45.12
3178;BME280;38141;42.666;23.344;2023-04-06T11:55:53;94226.13;;;10.25;44.53
3178;BME280;38141;42.666;23.344;2023-04-06T11:58:21;94205.47;;;10.66;43.98
3178;BME280;38141;42.666;23.344;2023-04-06T12:00:48;94219.13;;;10.35;45.27
3178;BME280;38141;42.666;23.344;2023-04-06T12:03:15;94219.16;;;10.13;45.32
3178;BME280;38141;42.666;23.344;2023-04-06T12:05:43;94225.41;;;9.01;46.44
3178;BME280;38141;42.666;23.344;2023-04-06T12:08:10;94221.59;;;9.30;47.19
3178;BME280;38141;42.666;23.344;2023-04-06T12:10:37;94216.16;;;9.72;45.46
3178;BME280;38141;42.666;23.344;2023-04-06T12:13:04;94214.66;;;9.54;46.54
3178;BME280;38141;42.666;23.344;2023-04-06T12:15:32;94212.22;;;10.12;46.26
3178;BME280;38141;42.666;23.344;2023-04-06T12:17:59;94217.31;;;9.86;46.84
3178;BME280;38141;42.666;23.344;2023-04-06T12:20:25;94215.34;;;10.00;46.21
3178;BME280;38141;42.666;23.344;2023-04-06T12:22:52;94217.75;;;9.38;47.98
3178;BME280;38141;42.666;23.344;2023-04-06T12:25:19;94204.63;;;9.47;48.19
3178;BME280;38141;42.666;23.344;2023-04-06T12:27:46;94211.94;;;9.11;48.37
3178;BME280;38141;42.666;23.344;2023-04-06T12:30:14;94208.88;;;9.34;47.97
3178;BME280;38141;42.666;23.344;2023-04-06T12:32:42;94206.94;;;9.63;47.15
3178;BME280;38141;42.666;23.344;2023-04-06T12:35:09;94211.56;;;9.48;47.12
3178;BME280;38141;42.666;23.344;2023-04-06T12:37:37;94213.03;;;8.78;48.30
3178;BME280;38141;42.666;23.344;2023-04-06T12:40:05;94213.72;;;8.47;48.42
3178;BME280;38141;42.666;23.344;2023-04-06T12:42:32;94196.81;;;8.54;47.99
3178;BME280;38141;42.666;23.344;2023-04-06T12:45:01;94209.25;;;8.00;50.22
3178;BME280;38141;42.666;23.344;2023-04-06T12:47:28;94206.28;;;8.19;49.63
3178;BME280;38141;42.666;23.344;2023-04-06T12:49:56;94197.28;;;7.90;49.73
3178;BME280;38141;42.666;23.344;2023-04-06T12:52:23;94194.16;;;7.81;50.17
3178;BME280;38141;42.666;23.344;2023-04-06T12:54:50;94191.38;;;8.43;49.35
3178;BME280;38141;42.666;23.344;2023-04-06T12:57:16;94171.66;;;8.28;48.73
3178;BME280;38141;42.666;23.344;2023-04-06T12:59:43;94191.34;;;8.32;50.06
3178;BME280;38141;42.666;23.344;2023-04-06T13:02:11;94193.72;;;8.59;49.33
3178;BME280;38141;42.666;23.344;2023-04-06T13:04:38;94197.28;;;9.05;48.49